Portland, Oregon
Traffic Map
Current Weather Conditions
Portland, Oregon
Overcast
Overcast
44°
Feels Like: 44°
Wind Chill: 44° Ceiling: 2100
Heat Index: 44° Visibility: 10mi
Dew Point: 41° Wind: 3mph
Humidity: 89% Direction: 290° (WNW)
Pressure: 30.49in Gusts: 0mph
Raw Report DataKPDX 070953Z 29003KT 10SM OVC021 07/05 A3049 RMK AO2 SLP324 T00670050
Traffic Incident Summary
Active as of:
Severity:
Category:
InformationThere was an issue retrieving the traffic information for this location. Please try a different location or try again shortly.
Advertisements
Track Severe Weather on mobile